createdAt,value
2019-02-26T00:00:31.584Z,28.8
2019-02-26T00:01:08.627Z,28.7
2019-02-26T00:02:08.917Z,28.7
2019-02-26T00:03:09.269Z,28.6
2019-02-26T00:03:42.389Z,28.6
2019-02-26T00:04:41.619Z,28.6
2019-02-26T00:05:36.884Z,28.5
2019-02-26T00:06:10.822Z,28.5
2019-02-26T00:07:06.636Z,28.4
2019-02-26T00:08:06.736Z,28.4
2019-02-26T00:08:41.154Z,28.4
2019-02-26T00:09:41.432Z,28.4
2019-02-26T00:10:38.952Z,28.3
2019-02-26T00:11:17.051Z,28.3
2019-02-26T00:11:59.882Z,28.3
2019-02-26T00:12:50.218Z,28.3
2019-02-26T00:13:44.339Z,28.2
2019-02-26T00:14:36.988Z,28.1
2019-02-26T00:15:20.211Z,28.1
2019-02-26T00:16:26.025Z,28.1
2019-02-26T00:16:59.949Z,28.1
2019-02-26T00:17:57.836Z,28
2019-02-26T00:18:40.313Z,28
2019-02-26T00:19:29.633Z,27.9
2019-02-26T00:21:12.335Z,27.7
2019-02-26T00:22:01.884Z,27.6
2019-02-26T00:22:50.743Z,27.6
2019-02-26T00:23:48.790Z,27.4
2019-02-26T00:24:48.699Z,27.4
2019-02-26T00:25:27.671Z,27.3
2019-02-26T00:26:24.334Z,27.3
2019-02-26T00:27:12.308Z,27.1
2019-02-26T00:28:01.938Z,27.1
2019-02-26T00:28:51.735Z,27
2019-02-26T00:29:38.125Z,26.9
2019-02-26T00:30:25.880Z,26.9
2019-02-26T00:31:13.455Z,26.8
2019-02-26T00:32:04.938Z,26.8
2019-02-26T00:32:53.107Z,26.6
2019-02-26T00:33:40.903Z,26.6
2019-02-26T00:34:42.387Z,26.5
2019-02-26T00:35:33.702Z,26.4
2019-02-26T00:36:20.087Z,26.4
2019-02-26T00:37:12.055Z,26.3
2019-02-26T00:38:02.049Z,26.3
2019-02-26T00:38:51.132Z,26.2
2019-02-26T00:39:38.435Z,26.1
2019-02-26T00:40:26.994Z,26
2019-02-26T00:41:13.980Z,26.5
2019-02-26T00:42:10.662Z,27.8
2019-02-26T00:43:10.547Z,28.7
2019-02-26T00:43:43.537Z,29.4
2019-02-26T00:44:43.207Z,29.6
2019-02-26T00:45:42.072Z,30
2019-02-26T00:46:16.812Z,30.2
2019-02-26T00:47:14.694Z,30.2
2019-02-26T00:47:54.204Z,30.1
2019-02-26T00:48:49.257Z,29.9
2019-02-26T00:49:36.114Z,29.6
2019-02-26T00:50:23.752Z,29.4
2019-02-26T00:51:12.283Z,29
2019-02-26T00:52:06.218Z,28.8
2019-02-26T00:53:04.978Z,28.5
2019-02-26T00:53:42.156Z,28.3
2019-02-26T00:54:43.356Z,28.1
2019-02-26T00:56:17.499Z,27.7
2019-02-26T00:57:19.376Z,27.6
2019-02-26T00:57:52.234Z,27.4
2019-02-26T00:58:56.075Z,27.3
2019-02-26T00:59:36.233Z,27.2
2019-02-26T01:00:30.685Z,27.1
2019-02-26T01:01:28.496Z,27
2019-02-26T01:02:06.809Z,26.9
2019-02-26T01:02:52.576Z,26.9
2019-02-26T01:03:54.763Z,26.8
2019-02-26T01:04:33.783Z,26.8
2019-02-26T01:05:23.043Z,26.7
2019-02-26T01:06:16.159Z,26.6
2019-02-26T01:07:13.285Z,26.6
2019-02-26T01:08:00.805Z,26.4
2019-02-26T01:08:52.571Z,26.4
2019-02-26T01:09:39.423Z,26.3
2019-02-26T01:10:29.593Z,26.3
2019-02-26T01:11:14.175Z,26.2
2019-02-26T01:12:02.460Z,26.1
2019-02-26T01:12:53.283Z,26.1
2019-02-26T01:13:43.367Z,26
2019-02-26T01:14:33.185Z,25.9
2019-02-26T01:15:23.175Z,25.9
2019-02-26T01:16:13.246Z,25.8
2019-02-26T01:17:04.086Z,25.8
2019-02-26T01:18:00.625Z,25.6
2019-02-26T01:18:55.178Z,25.6
2019-02-26T01:19:45.041Z,25.5
2019-02-26T01:20:36.818Z,25.4
2019-02-26T01:21:13.850Z,25.4
2019-02-26T01:22:04.167Z,25.3
2019-02-26T01:22:53.717Z,25.3
2019-02-26T01:23:43.740Z,25.2
2019-02-26T01:24:38.785Z,25.1
2019-02-26T01:25:29.542Z,25.7
2019-02-26T01:26:17.950Z,27.1
2019-02-26T01:27:04.782Z,28
2019-02-26T01:28:06.415Z,28.6
2019-02-26T01:29:05.470Z,29.1
2019-02-26T01:29:39.077Z,29.4
2019-02-26T01:30:42.025Z,29.6
2019-02-26T01:31:14.534Z,29.6
2019-02-26T01:32:23.113Z,29.4
2019-02-26T01:33:00.477Z,29.1
2019-02-26T01:33:52.608Z,28.8
2019-02-26T01:34:34.154Z,28.4
2019-02-26T01:35:35.371Z,28.3
2019-02-26T01:36:27.136Z,27.9
2019-02-26T01:37:16.777Z,27.8
2019-02-26T01:38:05.949Z,27.6
2019-02-26T01:38:58.477Z,27.4
2019-02-26T01:39:54.255Z,27.3
2019-02-26T01:40:32.001Z,27.1
2019-02-26T01:41:31.864Z,27.1
2019-02-26T01:42:05.994Z,26.9
2019-02-26T01:43:11.084Z,26.9
2019-02-26T01:43:45.384Z,26.8
2019-02-26T01:44:49.426Z,26.7
2019-02-26T01:45:37.801Z,26.6
2019-02-26T01:46:25.084Z,26.5
2019-02-26T01:47:11.836Z,26.4
2019-02-26T01:47:59.476Z,26.4
2019-02-26T01:48:47.999Z,26.3
2019-02-26T01:49:36.831Z,26.3
2019-02-26T01:50:33.152Z,26.2
2019-02-26T01:51:21.864Z,26.1
2019-02-26T01:52:17.938Z,26.1
2019-02-26T01:53:07.146Z,26
2019-02-26T01:53:59.038Z,25.9
2019-02-26T01:54:45.841Z,25.8
2019-02-26T01:55:34.094Z,25.8
2019-02-26T01:56:21.253Z,25.7
2019-02-26T01:57:10.976Z,25.6
2019-02-26T01:58:01.248Z,25.6
2019-02-26T01:59:02.264Z,25.5
2019-02-26T01:59:41.253Z,25.4
2019-02-26T02:00:31.388Z,25.4
2019-02-26T02:01:32.010Z,25.3
2019-02-26T02:02:07.249Z,25.2
2019-02-26T02:02:57.999Z,25.1
2019-02-26T02:03:59.937Z,25.1
2019-02-26T02:04:48.943Z,25.1
2019-02-26T02:05:37.438Z,25
2019-02-26T02:06:24.853Z,24.9
2019-02-26T02:07:12.628Z,24.9
2019-02-26T02:08:02.433Z,24.8
2019-02-26T02:09:00.748Z,24.8
2019-02-26T02:09:37.988Z,24.7
2019-02-26T02:10:27.417Z,24.7
2019-02-26T02:11:17.745Z,24.6
2019-02-26T02:12:17.641Z,24.6
2019-02-26T02:13:16.249Z,24.6
2019-02-26T02:13:50.675Z,24.5
2019-02-26T02:14:38.522Z,24.4
2019-02-26T02:15:30.653Z,24.4
2019-02-26T02:16:17.260Z,24.4
2019-02-26T02:17:20.257Z,24.4
2019-02-26T02:18:08.927Z,24.8
2019-02-26T02:19:04.675Z,26.3
2019-02-26T02:19:40.561Z,27.4
2019-02-26T02:20:29.295Z,27.9
2019-02-26T02:21:18.122Z,28.4
2019-02-26T02:22:12.042Z,28.8
2019-02-26T02:23:10.514Z,29.1
2019-02-26T02:23:58.090Z,29.1
2019-02-26T02:24:57.887Z,28.9
2019-02-26T02:25:47.534Z,28.5
2019-02-26T02:26:22.451Z,28.2
2019-02-26T02:27:09.097Z,28
2019-02-26T02:28:10.059Z,27.7
2019-02-26T02:28:49.757Z,27.5
2019-02-26T02:29:50.631Z,27.4
2019-02-26T02:30:45.255Z,27.2
2019-02-26T02:31:18.887Z,27
2019-02-26T02:32:14.753Z,26.9
2019-02-26T02:33:09.267Z,26.9
2019-02-26T02:33:49.004Z,26.8
2019-02-26T02:34:49.077Z,26.7
2019-02-26T02:35:28.876Z,26.6
2019-02-26T02:36:33.159Z,26.5
2019-02-26T02:37:09.577Z,26.4
2019-02-26T02:38:11.490Z,26.4
2019-02-26T02:38:49.664Z,26.3
2019-02-26T02:39:39.128Z,26.2
2019-02-26T02:40:30.417Z,26.1
2019-02-26T02:41:19.579Z,26.1
2019-02-26T02:42:23.401Z,26
2019-02-26T02:43:20.794Z,25.9
2019-02-26T02:43:50.259Z,25.8
2019-02-26T02:44:53.848Z,25.8
2019-02-26T02:45:28.761Z,25.7
2019-02-26T02:46:19.646Z,25.6
2019-02-26T02:47:18.268Z,25.6
2019-02-26T02:48:19.278Z,25.4
2019-02-26T02:48:50.399Z,25.4
2019-02-26T02:49:50.908Z,25.4
2019-02-26T02:50:30.984Z,25.3
2019-02-26T02:51:20.583Z,25.2
2019-02-26T02:52:18.340Z,25.1
2019-02-26T02:53:10.726Z,25.1
2019-02-26T02:54:04.743Z,25
2019-02-26T02:54:54.160Z,24.9
2019-02-26T02:55:30.832Z,24.9
2019-02-26T02:56:24.620Z,24.8
2019-02-26T02:57:16.897Z,24.8
2019-02-26T02:58:06.578Z,24.7
2019-02-26T02:58:58.328Z,24.6
2019-02-26T02:59:48.440Z,24.6
2019-02-26T03:00:40.862Z,24.5
2019-02-26T03:01:34.575Z,24.5
2019-02-26T03:02:25.940Z,24.4
2019-02-26T03:03:04.685Z,24.4
2019-02-26T03:04:06.795Z,24.3
2019-02-26T03:04:41.559Z,24.3
2019-02-26T03:08:03.930Z,24.1
2019-02-26T03:08:59.867Z,24.1
2019-02-26T03:09:51.863Z,24.1
2019-02-26T03:10:50.360Z,24.1
2019-02-26T03:11:18.472Z,24.1
2019-02-26T03:12:08.825Z,24
2019-02-26T03:13:09.234Z,24
2019-02-26T03:13:59.912Z,24
2019-02-26T03:14:50.897Z,24.1
2019-02-26T03:15:42.334Z,24
2019-02-26T03:16:33.081Z,24
2019-02-26T03:17:24.374Z,24.1
2019-02-26T03:18:00.309Z,24.1
2019-02-26T03:18:49.355Z,24.1
2019-02-26T03:19:49.944Z,24.1
2019-02-26T03:20:46.282Z,24.1
2019-02-26T03:21:34.647Z,24.1
2019-02-26T03:22:24.759Z,24.1
2019-02-26T03:23:00.422Z,24.2
2019-02-26T03:23:53.488Z,24.2
2019-02-26T03:24:43.281Z,24.3
2019-02-26T03:25:36.499Z,24.3
2019-02-26T03:26:33.585Z,24.3
2019-02-26T03:27:10.365Z,24.3
2019-02-26T03:28:00.701Z,24.3
2019-02-26T03:29:00.518Z,24.3
2019-02-26T03:29:40.844Z,24.3
2019-02-26T03:30:51.226Z,25.6
2019-02-26T03:31:21.057Z,29.3
2019-02-26T03:32:11.349Z,32.3
2019-02-26T03:33:12.198Z,32.9
2019-02-26T03:33:51.029Z,34.5
2019-02-26T03:34:41.117Z,35.6
2019-02-26T03:35:31.603Z,35.7
2019-02-26T03:36:25.959Z,35.9
2019-02-26T03:37:17.705Z,35.9
2019-02-26T03:38:10.510Z,35.8
2019-02-26T03:39:08.804Z,35.9
2019-02-26T03:39:40.913Z,35.9
2019-02-26T03:40:42.449Z,35.8
2019-02-26T03:41:36.382Z,35.7
2019-02-26T03:42:24.356Z,35.6
2019-02-26T03:43:15.990Z,35.4
2019-02-26T03:43:51.493Z,35.3
2019-02-26T03:44:41.348Z,35.2
2019-02-26T03:45:32.875Z,35.1
2019-02-26T03:46:21.509Z,35.1
2019-02-26T03:47:11.021Z,36.1
2019-02-26T03:48:05.153Z,36.8
2019-02-26T03:48:51.055Z,37.3
2019-02-26T03:49:46.001Z,37.6
2019-02-26T03:50:34.075Z,37.8
2019-02-26T03:51:25.340Z,37.8
2019-02-26T03:52:16.478Z,37.6
2019-02-26T03:53:01.695Z,37.3
2019-02-26T03:53:51.675Z,36.9
2019-02-26T03:54:56.563Z,36.8
2019-02-26T03:55:45.944Z,36.7
2019-02-26T03:56:27.927Z,36.5
2019-02-26T03:57:28.380Z,36.4
2019-02-26T03:58:09.458Z,36.2
2019-02-26T03:59:14.799Z,36.1
2019-02-26T03:59:42.287Z,35.8
2019-02-26T04:00:48.700Z,35.7
2019-02-26T04:01:29.420Z,36.5
2019-02-26T04:02:28.428Z,37
2019-02-26T04:03:17.271Z,37.6
2019-02-26T04:03:51.190Z,37.9
2019-02-26T04:04:45.823Z,38.1
2019-02-26T04:05:32.957Z,38.1
2019-02-26T04:06:22.444Z,38
2019-02-26T04:07:17.459Z,37.8
2019-02-26T04:08:11.510Z,37.3
2019-02-26T04:09:02.889Z,37.1
2019-02-26T04:10:04.101Z,37.1
2019-02-26T04:10:33.602Z,36.9
2019-02-26T04:11:34.284Z,36.8
2019-02-26T04:12:26.571Z,36.6
2019-02-26T04:13:06.107Z,36.4
2019-02-26T04:14:03.151Z,36.5
2019-02-26T04:14:43.951Z,37.3
2019-02-26T04:15:44.105Z,37.7
2019-02-26T04:16:23.126Z,38.1
2019-02-26T04:17:16.387Z,38.3
2019-02-26T04:18:04.102Z,38.4
2019-02-26T04:18:58.673Z,38.4
2019-02-26T04:19:48.514Z,38.2
2019-02-26T04:20:36.154Z,38
2019-02-26T04:21:28.250Z,37.5
2019-02-26T04:22:30.119Z,37.4
2019-02-26T04:23:04.429Z,37.3
2019-02-26T04:23:53.520Z,37.2
2019-02-26T04:24:44.563Z,37.1
2019-02-26T04:25:42.934Z,36.9
2019-02-26T04:26:40.307Z,37.6
2019-02-26T04:27:14.783Z,38.1
2019-02-26T04:28:16.423Z,38.3
2019-02-26T04:28:57.783Z,38.6
2019-02-26T04:29:56.168Z,38.6
2019-02-26T04:30:56.810Z,38.6
2019-02-26T04:31:25.088Z,38.3
2019-02-26T04:32:28.610Z,38.2
2019-02-26T04:33:18.020Z,37.7
2019-02-26T04:34:10.815Z,37.5
2019-02-26T04:34:44.968Z,37.4
2019-02-26T04:35:35.310Z,37.4
2019-02-26T04:36:30.236Z,37.2
2019-02-26T04:37:19.759Z,37.4
2019-02-26T04:38:13.312Z,37.9
2019-02-26T04:39:02.294Z,38.3
2019-02-26T04:39:54.728Z,38.6
2019-02-26T04:40:47.315Z,38.8
2019-02-26T04:41:25.075Z,38.8
2019-02-26T04:42:26.157Z,38.7
2019-02-26T04:43:19.012Z,38.5
2019-02-26T04:44:11.120Z,38.3
2019-02-26T04:45:08.643Z,37.9
2019-02-26T04:45:35.982Z,37.7
2019-02-26T04:46:40.787Z,37.6
2019-02-26T04:47:17.721Z,37.5
2019-02-26T04:48:08.057Z,37.8
2019-02-26T04:48:55.657Z,38.3
2019-02-26T04:49:50.405Z,38.5
2019-02-26T04:50:50.405Z,38.8
2019-02-26T04:51:26.712Z,38.8
2019-02-26T04:52:25.080Z,38.8
2019-02-26T04:53:17.512Z,38.7
2019-02-26T04:54:07.683Z,38.6
2019-02-26T04:54:47.394Z,38.4
2019-02-26T04:55:50.816Z,38
2019-02-26T04:56:26.001Z,37.8
2019-02-26T04:57:16.571Z,37.6
2019-02-26T04:58:08.586Z,37.6
2019-02-26T04:58:56.716Z,37.9
2019-02-26T04:59:51.198Z,38.3
2019-02-26T05:00:45.749Z,38.6
2019-02-26T05:01:26.568Z,38.8
2019-02-26T05:02:16.658Z,38.9
2019-02-26T05:03:23.029Z,38.9
2019-02-26T05:03:56.471Z,38.7
2019-02-26T05:04:49.780Z,38.6
2019-02-26T05:05:44.176Z,38.3
2019-02-26T05:06:26.962Z,37.8
2019-02-26T05:07:26.249Z,37.6
2019-02-26T05:08:21.304Z,37.4
2019-02-26T05:09:12.936Z,37.4
2019-02-26T05:10:02.113Z,37.9
2019-02-26T05:10:41.328Z,38.3
2019-02-26T05:11:47.201Z,38.4
2019-02-26T05:12:17.593Z,38.5
2019-02-26T05:13:16.226Z,38.6
2019-02-26T05:13:57.734Z,38.5
2019-02-26T05:14:47.780Z,38.4
2019-02-26T05:15:43.824Z,38.3
2019-02-26T05:16:44.674Z,38.1
2019-02-26T05:17:27.096Z,37.8
2019-02-26T05:18:07.809Z,37.6
2019-02-26T05:19:04.970Z,37.6
2019-02-26T05:19:58.350Z,37.9
2019-02-26T05:20:54.391Z,38.3
2019-02-26T05:21:41.815Z,38.6
2019-02-26T05:22:27.643Z,38.8
2019-02-26T05:23:12.712Z,38.8
2019-02-26T05:24:08.335Z,38.7
2019-02-26T05:24:59.630Z,39.6
2019-02-26T05:25:50.620Z,40.3
2019-02-26T05:26:31.637Z,40.7
2019-02-26T05:27:31.590Z,40.9
2019-02-26T05:28:22.814Z,41.2
2019-02-26T05:28:59.350Z,41.3
2019-02-26T05:30:01.287Z,41.4
2019-02-26T05:30:52.508Z,41.4
2019-02-26T05:31:40.195Z,41
2019-02-26T05:32:18.682Z,39.4
2019-02-26T05:33:13.377Z,38.4
2019-02-26T05:34:07.142Z,37.7
2019-02-26T05:34:57.085Z,37
2019-02-26T05:35:53.425Z,36.6
2019-02-26T05:36:47.824Z,37.4
2019-02-26T05:37:21.882Z,39.1
2019-02-26T05:38:16.783Z,39.8
2019-02-26T05:39:08.369Z,40.4
2019-02-26T05:40:00.969Z,40.8
2019-02-26T05:41:00.029Z,41.1
2019-02-26T05:41:29.223Z,41.1
2019-02-26T05:42:19.392Z,40.1
2019-02-26T05:43:13.294Z,38.8
2019-02-26T05:44:16.260Z,37.9
2019-02-26T05:44:56.696Z,38.1
2019-02-26T05:45:42.743Z,39.6
2019-02-26T05:46:36.063Z,40.1
2019-02-26T05:47:32.295Z,40.6
2019-02-26T05:48:09.803Z,40.9
2019-02-26T05:49:00.033Z,41
2019-02-26T05:49:53.547Z,39.8
2019-02-26T05:50:51.735Z,38.9
2019-02-26T05:51:43.937Z,37.9
2019-02-26T05:52:32.880Z,38.5
2019-02-26T05:53:20.130Z,39.8
2019-02-26T05:54:25.275Z,40.4
2019-02-26T05:54:49.878Z,40.9
2019-02-26T05:55:55.949Z,41
2019-02-26T05:56:30.955Z,41.2
2019-02-26T05:57:40.277Z,40.9
2019-02-26T05:58:25.485Z,39.2
2019-02-26T05:59:23.219Z,38.3
2019-02-26T05:59:51.133Z,37.4
2019-02-26T06:00:41.204Z,37.4
2019-02-26T06:01:35.219Z,39.1
2019-02-26T06:02:31.439Z,40.2
2019-02-26T06:03:24.897Z,40.8
2019-02-26T06:06:07.240Z,41
2019-02-26T06:07:05.173Z,39.1
2019-02-26T06:07:46.059Z,38.1
2019-02-26T06:08:47.480Z,37.5
2019-02-26T06:09:34.604Z,39
2019-02-26T06:10:08.964Z,40
2019-02-26T06:10:59.291Z,40.4
2019-02-26T06:11:57.488Z,40.8
2019-02-26T06:12:53.059Z,41
2019-02-26T06:13:44.608Z,39.9
2019-02-26T06:14:20.779Z,38.8
2019-02-26T06:15:15.065Z,38
2019-02-26T06:16:13.499Z,37.8
2019-02-26T06:17:01.464Z,39.7
2019-02-26T06:18:00.371Z,40.4
2019-02-26T06:18:29.301Z,40.9
2019-02-26T06:19:24.551Z,41.1
2019-02-26T06:20:17.681Z,41.3
2019-02-26T06:21:07.841Z,39.9
2019-02-26T06:22:02.431Z,38.8
2019-02-26T06:22:42.844Z,37.9
2019-02-26T06:23:47.558Z,38.4
2019-02-26T06:24:39.749Z,40.2
2019-02-26T06:25:31.700Z,40.9
2019-02-26T06:26:27.956Z,41.3
2019-02-26T06:26:53.498Z,41.5
2019-02-26T06:27:43.919Z,41.5
2019-02-26T06:28:53.743Z,41.1
2019-02-26T06:29:42.220Z,39.3
2019-02-26T06:30:19.948Z,38.4
2019-02-26T06:31:04.631Z,38.4
2019-02-26T06:31:56.925Z,39.8
2019-02-26T06:32:52.148Z,40.8
2019-02-26T06:33:55.561Z,41.1
2019-02-26T06:34:29.285Z,41.4
2019-02-26T06:35:25.793Z,41.5
2019-02-26T06:36:12.703Z,40.6
2019-02-26T06:37:00.272Z,39.4
2019-02-26T06:37:46.777Z,38.5
2019-02-26T06:38:41.220Z,39.1
2019-02-26T06:39:41.302Z,40.4
2019-02-26T06:40:14.878Z,41.1
2019-02-26T06:41:04.477Z,41.3
2019-02-26T06:41:58.197Z,41.5
2019-02-26T06:42:47.667Z,41.6
2019-02-26T06:43:58.337Z,41.3
2019-02-26T06:44:25.470Z,39.4
2019-02-26T06:45:23.427Z,38.9
2019-02-26T06:46:19.017Z,38.1
2019-02-26T06:46:54.895Z,39.8
2019-02-26T06:47:54.434Z,40.6
2019-02-26T06:48:39.229Z,41.1
2019-02-26T06:49:35.347Z,41.3
2019-02-26T06:50:25.182Z,41.5
2019-02-26T06:51:13.904Z,41.7
2019-02-26T06:52:00.739Z,41
2019-02-26T06:52:56.240Z,39.7
2019-02-26T06:53:35.824Z,38.6
2019-02-26T06:54:38.154Z,38.1
2019-02-26T06:55:16.233Z,37.5
2019-02-26T06:56:08.166Z,38.7
2019-02-26T06:57:00.566Z,39.6
2019-02-26T06:58:00.892Z,39.4
2019-02-26T06:58:47.949Z,37.1
2019-02-26T06:59:37.344Z,36.2
2019-02-26T07:00:26.994Z,35.6
2019-02-26T07:01:09.490Z,35.4
2019-02-26T07:01:59.834Z,35.3
2019-02-26T07:02:50.987Z,35.3
2019-02-26T07:03:40.290Z,35.1
2019-02-26T07:06:05.375Z,34.7
2019-02-26T07:06:47.911Z,34.4
2019-02-26T07:07:39.538Z,34.3
2019-02-26T07:08:37.743Z,33.9
2019-02-26T07:09:27.823Z,33
2019-02-26T07:10:08.923Z,32.7
2019-02-26T07:10:59.513Z,32.7
2019-02-26T07:11:49.503Z,32.6
2019-02-26T07:12:52.073Z,32.4
2019-02-26T07:13:29.151Z,32.1
2019-02-26T07:14:19.411Z,31.9
2019-02-26T07:15:14.075Z,31.6
2019-02-26T07:15:59.798Z,31.3
2019-02-26T07:16:49.068Z,31.1
2019-02-26T07:17:52.193Z,30.9
2019-02-26T07:18:29.970Z,30.6
2019-02-26T07:19:23.924Z,30.5
2019-02-26T07:20:11.266Z,29.6
2019-02-26T07:21:07.088Z,29.1
2019-02-26T07:21:58.923Z,28.8
2019-02-26T07:22:52.870Z,28.5
2019-02-26T07:23:42.969Z,28.3
2019-02-26T07:24:32.338Z,28.2
2019-02-26T07:25:23.005Z,28.1
2019-02-26T07:26:00.746Z,27.9
2019-02-26T07:26:56.095Z,27.9
2019-02-26T07:27:45.606Z,27.9
2019-02-26T07:29:24.823Z,27.8
2019-02-26T07:30:11.083Z,27.3
2019-02-26T07:31:12.118Z,27.1
2019-02-26T07:32:02.352Z,26.7
2019-02-26T07:32:53.257Z,26.5
2019-02-26T07:33:43.517Z,26.4
2019-02-26T07:34:32.742Z,26.3
2019-02-26T07:35:23.227Z,26.2
2019-02-26T07:36:11.011Z,26.2
2019-02-26T07:36:59.112Z,26.1
2019-02-26T07:37:47.387Z,26.1
2019-02-26T07:38:58.112Z,26
2019-02-26T07:39:29.889Z,25.9
2019-02-26T07:40:24.757Z,25.7
2019-02-26T07:41:12.376Z,26.4
2019-02-26T07:42:01.071Z,27
2019-02-26T07:42:55.212Z,27.8
2019-02-26T07:43:31.096Z,28.5
2019-02-26T07:44:35.037Z,29.1
2019-02-26T07:45:37.054Z,29.3
2019-02-26T07:46:02.099Z,29
2019-02-26T07:46:52.835Z,28.9
2019-02-26T07:47:51.363Z,28.8
2019-02-26T07:48:40.679Z,28.6
2019-02-26T07:49:23.878Z,28.6
2019-02-26T07:50:23.549Z,28.6
2019-02-26T07:51:01.932Z,28.5
2019-02-26T07:51:51.909Z,28.4
2019-02-26T07:52:42.221Z,28.4
2019-02-26T07:53:32.320Z,28.3
2019-02-26T07:54:22.341Z,28.2
2019-02-26T07:55:23.189Z,27.9
2019-02-26T07:56:14.506Z,27.3
2019-02-26T07:57:05.171Z,27.1
2019-02-26T07:57:55.413Z,26.9
2019-02-26T07:58:45.218Z,26.8
2019-02-26T07:59:52.431Z,26.7
2019-02-26T08:00:12.491Z,26.6
2019-02-26T08:01:02.706Z,26.6
2019-02-26T08:01:57.416Z,26.5
2019-02-26T08:02:45.203Z,26.3
2019-02-26T08:03:36.910Z,26.3
2019-02-26T08:04:25.423Z,26.2
2019-02-26T08:05:13.350Z,25.9
2019-02-26T08:06:17.728Z,26.5
2019-02-26T08:07:05.307Z,27.4
2019-02-26T08:07:53.849Z,28.1
2019-02-26T08:08:33.343Z,28.8
2019-02-26T08:09:30.475Z,29.3
2019-02-26T08:10:25.688Z,28.9
2019-02-26T08:11:03.235Z,28.7
2019-02-26T08:11:56.020Z,28.6
2019-02-26T08:12:50.013Z,28.5
2019-02-26T08:13:43.197Z,28.4
2019-02-26T08:14:31.640Z,28.4
2019-02-26T08:15:22.107Z,28.3
2019-02-26T08:16:12.035Z,28.3
2019-02-26T08:17:11.827Z,28.2
2019-02-26T08:18:05.242Z,28.1
2019-02-26T08:18:33.990Z,27.9
2019-02-26T08:19:29.383Z,27.6
2019-02-26T08:20:21.395Z,27.2
2019-02-26T08:21:12.047Z,26.9
2019-02-26T08:22:03.647Z,26.8
2019-02-26T08:22:44.022Z,26.6
2019-02-26T08:23:34.430Z,26.6
2019-02-26T08:24:31.602Z,26.4
2019-02-26T08:25:14.731Z,26.4
2019-02-26T08:26:09.777Z,26.3
2019-02-26T08:26:57.350Z,26.3
2019-02-26T08:27:45.934Z,26.1
2019-02-26T08:28:36.917Z,25.9
2019-02-26T08:29:37.432Z,26.8
2019-02-26T08:30:29.089Z,27.6
2019-02-26T08:31:15.962Z,28.4
2019-02-26T08:32:07.619Z,29.1
2019-02-26T08:33:08.689Z,29.3
2019-02-26T08:33:35.151Z,29
2019-02-26T08:34:25.330Z,28.9
2019-02-26T08:35:20.051Z,28.8
2019-02-26T08:36:05.175Z,28.7
2019-02-26T08:36:55.186Z,28.6
2019-02-26T08:37:45.331Z,28.5
2019-02-26T08:38:38.117Z,28.4
2019-02-26T08:39:24.831Z,28.4
2019-02-26T08:40:18.080Z,28.3
2019-02-26T08:41:05.522Z,28.2
2019-02-26T08:41:55.271Z,28.1
2019-02-26T08:42:45.616Z,28
2019-02-26T08:43:35.751Z,27.5
2019-02-26T08:44:24.821Z,27.1
2019-02-26T08:45:32.011Z,26.9
2019-02-26T08:46:09.195Z,26.7
2019-02-26T08:46:57.283Z,26.6
2019-02-26T08:47:44.923Z,26.5
2019-02-26T08:48:36.250Z,26.4
2019-02-26T08:49:29.581Z,26.3
2019-02-26T08:50:21.801Z,26.2
2019-02-26T08:51:26.880Z,26
2019-02-26T08:51:56.536Z,26.1
2019-02-26T08:53:00.459Z,26.8
2019-02-26T08:54:41.465Z,28.4
2019-02-26T08:55:30.343Z,29.3
2019-02-26T08:56:12.968Z,29.3
2019-02-26T08:56:56.861Z,29
2019-02-26T08:57:46.615Z,28.8
2019-02-26T08:58:36.195Z,28.6
2019-02-26T08:59:27.376Z,28.6
2019-02-26T09:00:16.858Z,28.5
2019-02-26T09:01:06.565Z,28.4
2019-02-26T09:01:56.595Z,28.4
2019-02-26T09:03:02.765Z,28.3
2019-02-26T09:03:53.701Z,28.2
2019-02-26T09:04:31.359Z,28.1
2019-02-26T09:05:19.810Z,28.1
2019-02-26T09:06:23.097Z,27.9
2019-02-26T09:07:08.397Z,27.9
2019-02-26T09:08:48.900Z,27.7
2019-02-26T09:09:39.204Z,27.6
2019-02-26T09:10:29.117Z,27.5
2019-02-26T09:11:20.169Z,27.4
2019-02-26T09:12:08.777Z,27.4
2019-02-26T09:12:58.772Z,27.3
2019-02-26T09:13:50.623Z,26.9
2019-02-26T09:14:32.806Z,27.6
2019-02-26T09:15:20.210Z,28.4
2019-02-26T09:16:14.337Z,28.9
2019-02-26T09:17:10.496Z,29.6
2019-02-26T09:17:50.067Z,29.8
2019-02-26T09:18:47.494Z,29.4
2019-02-26T09:19:43.005Z,29.1
2019-02-26T09:20:22.521Z,29
2019-02-26T09:21:23.424Z,28.9
2019-02-26T09:22:02.146Z,28.8
2019-02-26T09:23:07.086Z,28.8
2019-02-26T09:23:40.504Z,28.6
2019-02-26T09:24:28.469Z,28.6
2019-02-26T09:25:20.359Z,28.5
2019-02-26T09:26:14.231Z,28.4
2019-02-26T09:27:11.082Z,28.3
2019-02-26T09:27:50.739Z,28.2
2019-02-26T09:28:40.079Z,28.1
2019-02-26T09:29:29.741Z,28
2019-02-26T09:30:23.444Z,27.9
2019-02-26T09:31:19.906Z,27.8
2019-02-26T09:31:58.653Z,27.7
2019-02-26T09:32:54.484Z,27.6
2019-02-26T09:33:51.826Z,27.5
2019-02-26T09:34:45.316Z,27.4
2019-02-26T09:35:36.334Z,27
2019-02-26T09:36:29.943Z,27.5
2019-02-26T09:37:13.571Z,28.3
2019-02-26T09:38:06.523Z,28.9
2019-02-26T09:38:51.401Z,29.6
2019-02-26T09:39:41.449Z,29.9
2019-02-26T09:40:37.701Z,29.5
2019-02-26T09:41:14.103Z,29.2
2019-02-26T09:42:11.816Z,29.1
2019-02-26T09:43:07.917Z,28.9
2019-02-26T09:43:51.903Z,28.8
2019-02-26T09:44:41.933Z,28.7
2019-02-26T09:45:34.488Z,28.6
2019-02-26T09:46:25.133Z,28.5
2019-02-26T09:47:12.303Z,28.4
2019-02-26T09:48:05.568Z,28.4
2019-02-26T09:48:52.176Z,28.3
2019-02-26T09:49:41.360Z,28.3
2019-02-26T09:50:29.711Z,28.2
2019-02-26T09:51:22.150Z,28.1
2019-02-26T09:52:12.472Z,28
2019-02-26T09:53:03.902Z,27.9
2019-02-26T09:54:30.872Z,27.8
2019-02-26T09:55:20.796Z,27.6
2019-02-26T09:56:10.542Z,27.6
2019-02-26T09:57:00.315Z,27.3
2019-02-26T09:57:49.668Z,27.2
2019-02-26T09:58:54.422Z,27.9
2019-02-26T09:59:42.839Z,28.8
2019-02-26T10:00:35.649Z,29.4
2019-02-26T10:01:22.237Z,30
2019-02-26T10:02:11.837Z,29.6
2019-02-26T10:02:58.530Z,29.3
2019-02-26T10:03:48.322Z,29.1
2019-02-26T10:04:36.005Z,28.9
2019-02-26T10:06:58.511Z,28.8
2019-02-26T10:07:48.004Z,28.6
2019-02-26T10:08:37.555Z,28.5
2019-02-26T10:09:28.731Z,28.4
2019-02-26T10:10:20.988Z,28.4
2019-02-26T10:11:11.929Z,28.3
2019-02-26T10:11:59.576Z,28.1
2019-02-26T10:12:51.056Z,28.1
2019-02-26T10:13:51.173Z,27.9
2019-02-26T10:14:41.298Z,27.9
2019-02-26T10:16:15.776Z,27.8
2019-02-26T10:17:03.764Z,27.6
2019-02-26T10:17:51.974Z,27.5
2019-02-26T10:18:40.539Z,27.3
2019-02-26T10:19:30.865Z,27
2019-02-26T10:20:33.701Z,27.9
2019-02-26T10:21:24.047Z,28.6
2019-02-26T10:22:16.748Z,29.3
2019-02-26T10:22:52.387Z,29.9
2019-02-26T10:23:39.986Z,29.7
2019-02-26T10:24:45.858Z,29.4
2019-02-26T10:25:39.988Z,29.1
2019-02-26T10:26:17.776Z,29
2019-02-26T10:27:19.578Z,28.9
2019-02-26T10:27:54.664Z,28.8
2019-02-26T10:29:12.531Z,28.7
2019-02-26T10:29:32.297Z,28.6
2019-02-26T10:30:24.026Z,28.5
2019-02-26T10:31:17.118Z,28.4
2019-02-26T10:32:03.780Z,28.3
2019-02-26T10:32:54.718Z,28.3
2019-02-26T10:33:56.235Z,28.1
2019-02-26T10:34:37.421Z,28.1
2019-02-26T10:35:53.965Z,28
2019-02-26T10:36:23.518Z,27.9
2019-02-26T10:37:51.635Z,27.8
2019-02-26T10:38:46.020Z,27.6
2019-02-26T10:39:37.493Z,27.6
2019-02-26T10:41:02.355Z,27.4
2019-02-26T10:41:14.927Z,27.4
2019-02-26T10:42:10.025Z,27.6
2019-02-26T10:42:54.770Z,28.4
2019-02-26T10:43:48.095Z,28.9
2019-02-26T10:44:36.112Z,29.6
2019-02-26T10:45:24.255Z,30
2019-02-26T10:46:15.099Z,29.6
2019-02-26T10:47:16.664Z,29.3
2019-02-26T10:48:07.774Z,29
2019-02-26T10:48:57.022Z,28.9
2019-02-26T10:49:36.585Z,28.8
2019-02-26T10:50:54.088Z,28.8
2019-02-26T10:51:27.626Z,28.6
2019-02-26T10:52:06.389Z,28.6
2019-02-26T10:53:25.750Z,28.4
2019-02-26T10:53:46.389Z,28.3
2019-02-26T10:54:52.655Z,28.3
2019-02-26T10:55:48.254Z,28.2
2019-02-26T10:56:15.756Z,28.1
2019-02-26T10:57:21.306Z,28.1
2019-02-26T10:58:16.803Z,27.9
2019-02-26T10:58:46.094Z,27.9
2019-02-26T11:00:42.564Z,27.7
2019-02-26T11:01:33.045Z,27.6
2019-02-26T11:02:10.474Z,27.4
2019-02-26T11:03:02.286Z,27
2019-02-26T11:04:01.230Z,27.8
2019-02-26T11:05:01.402Z,28.5
2019-02-26T11:05:34.506Z,29.3
2019-02-26T11:06:26.579Z,29.9
2019-02-26T11:07:21.199Z,30.1
2019-02-26T11:08:14.666Z,29.7
2019-02-26T11:09:02.347Z,29.4
2019-02-26T11:09:39.845Z,29.3
2019-02-26T11:10:33.061Z,29.1
2019-02-26T11:11:26.111Z,28.9
2019-02-26T11:12:16.068Z,28.9
2019-02-26T11:13:06.746Z,28.8
2019-02-26T11:14:00.584Z,28.7
2019-02-26T11:14:50.579Z,28.6
2019-02-26T11:15:42.571Z,28.5
2019-02-26T11:16:42.488Z,28.4
2019-02-26T11:17:07.619Z,28.3
2019-02-26T11:18:03.394Z,28.3
2019-02-26T11:18:54.490Z,28.1
2019-02-26T11:19:49.203Z,28.1
2019-02-26T11:20:40.654Z,28
2019-02-26T11:21:17.715Z,27.9
2019-02-26T11:22:59.776Z,27.7
2019-02-26T11:23:53.768Z,27.6
2019-02-26T11:24:43.748Z,27.5
2019-02-26T11:25:34.330Z,27.1